Time;durP1;ratioP1;P1;durP2;ratioP2;P2;SDS_P1;SDS_P2;PMS_P1;PMS_P2;Temp;Humidity;BMP_temperature;BMP_pressure;BME280_temperature;BME280_humidity;BME280_pressure;Samples;Min_cycle;Max_cycle;Signal;HPM_P1;HPM_P2
2022/12/11 00:03:41;;;;;;;42.83;22.10;;;-1.00;1.00;;;;;;8346662;28;20202;-76
2022/12/11 00:07:43;;;;;;;45.40;24.70;;;-1.10;1.00;;;;;;8343564;28;20190;-81
2022/12/11 00:11:48;;;;;;;53.43;28.00;;;-1.00;99.90;;;;;;8377062;28;20192;-76
2022/12/11 00:15:58;;;;;;;39.17;22.57;;;-1.00;99.90;;;;;;8373820;28;20240;-82
2022/12/11 00:20:00;;;;;;;43.23;24.17;;;-1.00;99.90;;;;;;8374604;28;20190;-80
2022/12/11 00:24:11;;;;;;;53.33;27.03;;;-1.00;99.90;;;;;;8374745;28;20181;-77
2022/12/11 00:28:19;;;;;;;53.03;27.07;;;-1.00;99.90;;;;;;8368324;28;20268;-76
2022/12/11 00:32:26;;;;;;;40.30;22.30;;;-1.00;99.90;;;;;;8375432;28;20195;-82
2022/12/11 00:36:48;;;;;;;44.27;23.53;;;-1.00;51.70;;;;;;8365687;28;20173;-82
2022/12/11 00:40:51;;;;;;;46.07;23.97;;;-1.10;22.80;;;;;;8372921;28;20555;-75
2022/12/11 00:44:57;;;;;;;43.20;24.23;;;-1.10;99.90;;;;;;8364871;28;20261;-77
2022/12/11 00:53:58;;;;;;;59.50;30.67;;;-1.10;99.90;;;;;;8373361;28;20325;-78
2022/12/11 00:58:40;;;;;;;40.57;24.27;;;-1.10;99.90;;;;;;8374638;28;20238;-80
2022/12/11 01:02:50;;;;;;;43.10;22.50;;;-1.10;38.80;;;;;;8359808;28;20197;-79
2022/12/11 01:06:51;;;;;;;41.87;23.40;;;-1.10;99.90;;;;;;8372673;28;20189;-84
2022/12/11 01:11:27;;;;;;;43.93;24.20;;;-1.20;99.90;;;;;;8371682;28;20184;-80
2022/12/11 01:15:32;;;;;;;41.13;24.43;;;-1.10;99.90;;;;;;8375436;28;20245;-81
2022/12/11 01:19:54;;;;;;;42.83;23.40;;;-1.20;99.90;;;;;;8368673;28;20228;-76
2022/12/11 01:24:04;;;;;;;39.10;22.23;;;-1.20;1.00;;;;;;8368949;28;20485;-76
2022/12/11 01:28:16;;;;;;;39.53;22.03;;;-1.20;99.90;;;;;;8370215;28;20184;-77
2022/12/11 01:32:17;;;;;;;36.53;21.73;;;-1.20;99.90;;;;;;8371061;28;20277;-78
2022/12/11 01:36:20;;;;;;;44.60;22.10;;;-1.20;12.20;;;;;;8371008;28;20191;-77
2022/12/11 01:40:31;;;;;;;40.03;22.23;;;-1.20;1.00;;;;;;8375856;28;20189;-81
2022/12/11 01:49:33;;;;;;;44.40;23.67;;;-1.30;99.90;;;;;;8308455;28;20236;-81
2022/12/11 01:53:38;;;;;;;38.53;22.13;;;-1.40;1.00;;;;;;8268812;28;20272;-79
2022/12/11 01:57:42;;;;;;;42.50;22.97;;;-1.40;1.00;;;;;;8312293;28;20218;-78
2022/12/11 02:02:03;;;;;;;46.33;23.97;;;-1.40;1.00;;;;;;8296383;28;20254;-75
2022/12/11 02:06:26;;;;;;;44.57;22.63;;;-1.50;67.30;;;;;;8314746;28;20216;-75
2022/12/11 02:11:18;;;;;;;40.00;21.97;;;-1.40;99.90;;;;;;8314675;28;20188;-75
2022/12/11 02:15:27;;;;;;;42.63;22.27;;;-1.40;99.90;;;;;;8328031;28;20213;-79
2022/12/11 02:20:09;;;;;;;44.17;23.50;;;-1.50;99.90;;;;;;8324795;28;20188;-79
2022/12/11 02:24:53;;;;;;;43.23;20.63;;;-1.50;99.90;;;;;;8371814;28;20277;-77
2022/12/11 02:29:48;;;;;;;46.87;22.00;;;-1.60;99.90;;;;;;8374018;28;20195;-84
2022/12/11 02:33:49;;;;;;;45.27;21.10;;;-1.60;99.90;;;;;;8372391;28;20230;-77
2022/12/11 02:38:18;;;;;;;39.53;21.17;;;-1.70;99.90;;;;;;8375930;28;20293;-81
2022/12/11 02:42:22;;;;;;;44.73;23.10;;;-1.70;99.90;;;;;;8391527;28;20194;-81
2022/12/11 02:46:27;;;;;;;38.87;21.97;;;-1.70;99.90;;;;;;8374932;28;20182;-76
2022/12/11 02:50:29;;;;;;;40.07;21.93;;;-1.70;99.90;;;;;;8370062;28;20233;-79
2022/12/11 02:54:38;;;;;;;38.93;20.43;;;-1.70;99.90;;;;;;8377188;28;20211;-77
2022/12/11 02:59:02;;;;;;;;;;;;;;;;;;;;;
2022/12/11 03:03:06;;;;;;;39.03;21.97;;;-1.70;99.90;;;;;;8373203;28;20208;-81
2022/12/11 03:07:18;;;;;;;40.57;21.80;;;-1.70;36.40;;;;;;8375439;28;20194;-79
2022/12/11 03:11:19;;;;;;;41.10;21.43;;;-1.70;32.70;;;;;;8375060;28;20221;-79
2022/12/11 03:15:25;;;;;;;36.23;20.00;;;-1.70;1.00;;;;;;8373245;28;20202;-77
2022/12/11 03:19:51;;;;;;;39.50;19.93;;;-1.70;1.00;;;;;;8371709;28;20188;-78
2022/12/11 03:24:24;;;;;;;37.50;21.07;;;-1.70;1.00;;;;;;8372105;28;20410;-76
2022/12/11 03:28:52;;;;;;;37.07;21.37;;;-1.80;1.00;;;;;;8365013;28;20194;-78
2022/12/11 03:33:25;;;;;;;36.10;19.20;;;-1.80;1.00;;;;;;8365668;28;20466;-79
2022/12/11 03:37:32;;;;;;;40.37;21.43;;;-1.90;1.00;;;;;;8380572;28;20557;-77
2022/12/11 03:41:38;;;;;;;36.63;21.30;;;-1.90;1.00;;;;;;8381203;28;20190;-83
2022/12/11 03:45:41;;;;;;;40.33;20.23;;;-1.90;1.00;;;;;;8378012;28;20237;-82
2022/12/11 03:49:49;;;;;;;36.30;21.27;;;-1.90;1.00;;;;;;8367298;28;20188;-77
2022/12/11 03:54:12;;;;;;;40.00;21.17;;;-2.00;1.00;;;;;;8375112;28;20300;-78
2022/12/11 03:58:14;;;;;;;38.17;20.23;;;-2.00;76.10;;;;;;8372894;28;20228;-77
2022/12/11 04:02:32;;;;;;;39.33;19.63;;;-2.00;99.90;;;;;;8377559;28;20210;-77
2022/12/11 04:06:35;;;;;;;40.83;19.07;;;-2.00;99.90;;;;;;8371774;28;20193;-76
2022/12/11 04:15:44;;;;;;;36.33;21.07;;;-2.00;99.90;;;;;;8374721;28;20309;-78
2022/12/11 04:24:17;;;;;;;37.33;19.80;;;-2.10;99.90;;;;;;8368186;28;20647;-79
2022/12/11 04:28:29;;;;;;;37.20;21.27;;;-2.10;99.90;;;;;;8372929;28;20179;-81
2022/12/11 04:36:55;;;;;;;39.67;20.03;;;-2.20;99.90;;;;;;8376345;28;20189;-82
2022/12/11 04:41:06;;;;;;;38.77;21.53;;;-2.20;99.90;;;;;;8387081;28;20189;-77
2022/12/11 04:50:11;;;;;;;38.90;20.27;;;-2.20;99.90;;;;;;8371675;28;20201;-82
2022/12/11 04:54:41;;;;;;;36.10;20.17;;;-2.20;99.90;;;;;;8364380;28;20278;-77
2022/12/11 04:59:07;;;;;;;32.30;18.87;;;-2.30;99.90;;;;;;8370231;28;20212;-83
2022/12/11 05:03:09;;;;;;;38.27;20.17;;;-2.30;99.90;;;;;;8374905;28;20197;-78
2022/12/11 05:16:37;;;;;;;32.30;19.07;;;-2.40;99.90;;;;;;8348545;28;20316;-82
2022/12/11 05:20:40;;;;;;;36.70;20.03;;;-2.40;99.90;;;;;;8350640;28;20193;-81
2022/12/11 05:30:07;;;;;;;35.93;19.87;;;-2.50;99.90;;;;;;8277602;28;20214;-77
2022/12/11 05:34:14;;;;;;;38.83;18.93;;;-2.50;99.90;;;;;;8316793;28;20237;-80
2022/12/11 05:38:16;;;;;;;33.03;17.17;;;-2.50;99.90;;;;;;8367262;28;20185;-85
2022/12/11 05:51:43;;;;;;;33.70;17.97;;;-2.60;99.90;;;;;;8367897;28;20212;-78
2022/12/11 05:55:47;;;;;;;35.30;18.27;;;-2.60;99.90;;;;;;8364207;28;20301;-81
2022/12/11 05:59:57;;;;;;;31.17;18.30;;;-2.60;99.90;;;;;;8367786;28;20195;-80
2022/12/11 06:04:16;;;;;;;32.17;17.73;;;-2.60;99.90;;;;;;8365219;28;20375;-84
2022/12/11 06:17:33;;;;;;;26.93;15.57;;;-2.50;99.90;;;;;;8364836;28;20190;-79
2022/12/11 06:22:24;;;;;;;27.93;16.77;;;-2.50;99.90;;;;;;8364375;28;20196;-81
2022/12/11 06:26:38;;;;;;;30.57;15.87;;;-2.50;99.90;;;;;;8353190;28;20250;-75
2022/12/11 06:30:42;;;;;;;24.60;14.53;;;-2.60;99.90;;;;;;8369204;28;20562;-80
2022/12/11 06:34:43;;;;;;;25.43;14.33;;;-2.50;99.90;;;;;;8342439;28;20218;-81
2022/12/11 06:39:23;;;;;;;;;;;;;;;;;;;;;
2022/12/11 06:43:57;;;;;;;22.50;12.87;;;-2.50;99.90;;;;;;8373388;28;20201;-80
2022/12/11 06:58:03;;;;;;;26.30;15.57;;;-2.50;99.90;;;;;;8377119;28;20359;-79
2022/12/11 07:02:15;;;;;;;25.60;14.63;;;-2.50;99.90;;;;;;8355857;28;20186;-81
2022/12/11 07:06:46;;;;;;;27.67;14.33;;;-2.50;99.90;;;;;;8360567;28;20243;-76
2022/12/11 07:10:54;;;;;;;28.53;14.63;;;-2.50;99.90;;;;;;8365782;28;20192;-77
2022/12/11 07:15:17;;;;;;;25.23;14.27;;;-2.50;99.90;;;;;;8376408;28;20226;-76
2022/12/11 07:19:17;;;;;;;25.53;14.43;;;-2.40;64.20;;;;;;8374470;28;20201;-75
2022/12/11 07:23:21;;;;;;;22.47;13.20;;;-2.50;1.00;;;;;;8374058;28;20190;-77
2022/12/11 07:28:05;;;;;;;25.20;14.37;;;-2.50;1.00;;;;;;8367411;28;20193;-80
2022/12/11 07:32:24;;;;;;;23.27;13.23;;;-2.40;1.00;;;;;;8381298;28;20185;-82
2022/12/11 07:36:28;;;;;;;25.03;13.43;;;-2.40;1.00;;;;;;8370419;28;20197;-75
2022/12/11 07:40:39;;;;;;;22.70;13.40;;;-2.40;1.00;;;;;;8378874;28;20194;-76
2022/12/11 07:44:40;;;;;;;19.53;12.23;;;-2.40;1.00;;;;;;8371417;28;20197;-81
2022/12/11 07:53:53;;;;;;;21.23;11.53;;;-2.60;99.90;;;;;;8364417;28;20466;-83
2022/12/11 07:57:57;;;;;;;25.53;12.47;;;-2.60;35.70;;;;;;8380896;28;20223;-81
2022/12/11 08:01:58;;;;;;;25.07;13.07;;;-2.70;1.00;;;;;;8367526;28;20178;-78
2022/12/11 08:05:59;;;;;;;33.30;14.93;;;-2.80;1.00;;;;;;8370892;28;20181;-82
2022/12/11 08:10:36;;;;;;;26.47;14.83;;;-2.70;1.00;;;;;;8376015;28;20668;-81
2022/12/11 08:14:37;;;;;;;22.97;12.80;;;-2.70;1.00;;;;;;8365406;28;20213;-81
2022/12/11 08:18:41;;;;;;;23.03;12.33;;;-2.70;1.00;;;;;;8369799;28;20295;-79
2022/12/11 08:22:46;;;;;;;23.33;12.43;;;-2.70;99.90;;;;;;8373463;28;20192;-77
2022/12/11 08:32:21;;;;;;;28.17;14.40;;;-2.80;45.00;;;;;;8372450;28;20252;-79
2022/12/11 08:51:21;;;;;;;29.70;14.27;;;-2.70;99.90;;;;;;8370345;28;20197;-76
2022/12/11 08:55:49;;;;;;;26.10;14.27;;;-2.70;99.90;;;;;;8369365;28;20221;-76
2022/12/11 09:00:25;;;;;;;31.70;15.47;;;-2.70;1.00;;;;;;8373056;28;20209;-75
2022/12/11 09:09:31;;;;;;;24.87;14.87;;;-2.70;1.00;;;;;;8366689;28;20202;-83
2022/12/11 09:13:35;;;;;;;29.30;15.43;;;-2.80;1.00;;;;;;8358053;28;20247;-82
2022/12/11 09:17:36;;;;;;;25.80;14.97;;;-2.80;1.00;;;;;;8356717;28;20266;-77
2022/12/11 09:22:01;;;;;;;31.87;14.93;;;-2.80;19.20;;;;;;8353851;28;20180;-82
2022/12/11 09:26:09;;;;;;;28.77;16.30;;;-2.80;83.00;;;;;;8307903;28;20277;-79
2022/12/11 09:30:12;;;;;;;33.63;16.23;;;-2.80;99.90;;;;;;8305432;28;20206;-76
2022/12/11 09:39:09;;;;;;;30.30;15.93;;;-2.70;99.90;;;;;;8337575;28;20289;-76
2022/12/11 09:43:46;;;;;;;32.60;16.53;;;-2.70;99.90;;;;;;8340790;28;20191;-79
2022/12/11 09:47:53;;;;;;;26.83;14.03;;;-2.70;99.90;;;;;;8322229;28;20182;-80
2022/12/11 10:02:15;;;;;;;32.80;14.70;;;-2.60;99.90;;;;;;8364894;28;20277;-78
2022/12/11 10:06:37;;;;;;;34.93;17.80;;;-2.70;99.90;;;;;;8370654;28;20227;-79
2022/12/11 10:11:14;;;;;;;35.27;16.43;;;-2.70;99.90;;;;;;8368748;28;20176;-80
2022/12/11 10:15:42;;;;;;;28.70;15.57;;;-2.70;1.00;;;;;;8370173;28;20576;-81
2022/12/11 10:19:44;;;;;;;26.80;15.87;;;-2.70;1.00;;;;;;8373313;28;20267;-79
2022/12/11 10:24:10;;;;;;;29.90;15.93;;;-2.70;1.00;;;;;;8366563;28;20211;-77
2022/12/11 10:28:36;;;;;;;36.07;18.53;;;-2.70;1.00;;;;;;8365749;28;20217;-78
2022/12/11 10:33:05;;;;;;;33.73;15.67;;;-2.70;1.00;;;;;;8364707;28;20189;-79
2022/12/11 10:37:06;;;;;;;30.20;16.40;;;-2.60;1.00;;;;;;8367926;28;20268;-78
2022/12/11 10:41:17;;;;;;;32.60;16.97;;;-2.50;1.00;;;;;;8372465;28;20500;-83
2022/12/11 10:45:18;;;;;;;31.67;15.77;;;-2.50;1.00;;;;;;8365260;28;20182;-77
2022/12/11 10:49:29;;;;;;;34.47;16.13;;;-2.60;99.90;;;;;;8378208;28;20556;-81
2022/12/11 10:53:32;;;;;;;28.57;15.87;;;-2.60;99.90;;;;;;8373718;28;20212;-79
2022/12/11 10:57:38;;;;;;;29.77;14.93;;;-2.60;99.90;;;;;;8376449;28;20259;-77
2022/12/11 11:01:39;;;;;;;32.77;15.23;;;-2.50;99.90;;;;;;8379571;28;20177;-77
2022/12/11 11:05:41;;;;;;;29.30;15.80;;;-2.50;99.90;;;;;;8372923;28;20298;-78
2022/12/11 11:09:42;;;;;;;30.13;15.47;;;-2.50;99.90;;;;;;8371445;28;20186;-82
2022/12/11 11:13:43;;;;;;;35.33;16.90;;;-2.50;99.90;;;;;;8381949;28;21012;-77
2022/12/11 11:17:47;;;;;;;28.77;15.47;;;-2.50;99.90;;;;;;8385414;28;20208;-76
2022/12/11 11:21:55;;;;;;;32.43;16.43;;;-2.60;1.00;;;;;;8380522;28;20182;-79
2022/12/11 11:25:59;;;;;;;31.93;17.53;;;-2.00;1.00;;;;;;8379226;28;20266;-80
2022/12/11 11:30:03;;;;;;;27.17;15.17;;;-2.30;1.00;;;;;;8375816;28;20399;-76
2022/12/11 11:34:17;;;;;;;28.93;16.03;;;-2.50;99.90;;;;;;8382796;28;20209;-77
2022/12/11 11:38:25;;;;;;;33.87;16.37;;;-2.50;9.70;;;;;;8385383;28;20214;-76
2022/12/11 11:42:43;;;;;;;28.63;15.60;;;-2.50;1.00;;;;;;8389464;28;20208;-78
2022/12/11 11:46:56;;;;;;;24.03;13.77;;;-2.50;1.00;;;;;;8370803;28;20693;-81
2022/12/11 11:50:57;;;;;;;34.00;16.63;;;-2.50;99.90;;;;;;8375563;28;20189;-77
2022/12/11 11:55:18;;;;;;;28.80;14.60;;;-2.60;99.90;;;;;;8374310;28;20200;-80
2022/12/11 11:59:33;;;;;;;30.83;15.00;;;-2.60;99.90;;;;;;8372794;28;20287;-75
2022/12/11 12:03:35;;;;;;;29.97;15.03;;;-2.50;99.90;;;;;;8367843;28;20225;-76
2022/12/11 12:08:05;;;;;;;24.83;14.73;;;-2.40;99.90;;;;;;8379179;28;20193;-77
2022/12/11 12:12:37;;;;;;;30.30;15.57;;;-2.50;99.90;;;;;;8379845;28;20194;-76
2022/12/11 12:17:05;;;;;;;27.13;14.07;;;-2.40;99.90;;;;;;8379288;28;20201;-80
2022/12/11 12:21:23;;;;;;;28.57;14.67;;;-2.50;99.90;;;;;;8376265;28;20196;-78
2022/12/11 12:25:47;;;;;;;24.47;14.23;;;-2.50;1.00;;;;;;8372508;28;20288;-76
2022/12/11 12:30:24;;;;;;;22.40;13.17;;;-2.50;1.00;;;;;;8374155;28;20211;-78
2022/12/11 12:34:36;;;;;;;22.43;13.23;;;-2.50;99.90;;;;;;8350346;28;20234;-80
2022/12/11 12:39:14;;;;;;;29.10;14.17;;;-2.50;99.90;;;;;;8372259;28;20487;-81
2022/12/11 12:43:43;;;;;;;21.00;12.43;;;-2.50;1.00;;;;;;8377635;28;20190;-80
2022/12/11 12:47:46;;;;;;;24.57;14.17;;;-2.50;1.00;;;;;;8377982;28;20270;-81
2022/12/11 12:51:49;;;;;;;21.80;12.50;;;-2.50;99.90;;;;;;8378739;28;20185;-77
2022/12/11 12:55:51;;;;;;;28.23;13.47;;;-2.50;99.90;;;;;;8372851;28;20213;-81
2022/12/11 12:59:55;;;;;;;22.43;13.63;;;-2.50;99.90;;;;;;8382398;28;20197;-82
2022/12/11 13:04:07;;;;;;;24.53;13.07;;;-2.50;1.00;;;;;;8372346;28;20183;-79
2022/12/11 13:08:10;;;;;;;27.00;13.30;;;-2.50;1.00;;;;;;8373032;28;20238;-81
2022/12/11 13:12:15;;;;;;;21.73;13.50;;;-2.50;96.90;;;;;;8368326;28;20194;-82
2022/12/11 13:16:15;;;;;;;23.97;12.57;;;-2.50;99.90;;;;;;8365987;28;20536;-81
2022/12/11 13:20:23;;;;;;;22.10;12.20;;;-2.50;99.90;;;;;;8373429;28;20609;-81
2022/12/11 13:24:26;;;;;;;25.93;12.50;;;-2.50;12.10;;;;;;8373619;28;20244;-80
2022/12/11 13:28:49;;;;;;;23.83;13.37;;;-2.60;99.90;;;;;;8364505;28;20186;-80
2022/12/11 13:33:16;;;;;;;21.63;11.77;;;-2.60;1.00;;;;;;8378945;28;20266;-82
2022/12/11 13:37:26;;;;;;;24.03;12.50;;;-2.60;99.90;;;;;;8386664;28;20190;-81
2022/12/11 13:41:36;;;;;;;21.03;12.47;;;-2.60;1.00;;;;;;8373931;28;20288;-76
2022/12/11 13:45:46;;;;;;;25.60;13.33;;;-2.60;99.90;;;;;;8370122;28;20193;-74
2022/12/11 13:49:53;;;;;;;22.83;13.37;;;-2.60;1.00;;;;;;8387599;28;20188;-81
2022/12/11 13:54:14;;;;;;;23.17;13.07;;;-2.60;1.00;;;;;;8384090;28;20198;-77
2022/12/11 13:58:20;;;;;;;24.20;14.40;;;-2.60;45.70;;;;;;8368911;28;20202;-76
2022/12/11 14:02:21;;;;;;;23.93;13.57;;;-2.50;99.90;;;;;;8369114;28;20185;-83
2022/12/11 14:06:24;;;;;;;25.73;14.67;;;-2.60;1.00;;;;;;8370426;28;20450;-76
2022/12/11 14:10:31;;;;;;;26.13;14.43;;;-2.60;99.90;;;;;;8374444;28;20185;-77
2022/12/11 14:14:46;;;;;;;26.00;12.90;;;-2.60;99.90;;;;;;8385246;28;20541;-80
2022/12/11 14:18:49;;;;;;;27.30;14.13;;;-2.60;1.00;;;;;;8376745;28;20186;-81
2022/12/11 14:22:51;;;;;;;25.47;13.57;;;-2.60;99.90;;;;;;8384191;28;20264;-81
2022/12/11 14:26:53;;;;;;;26.47;13.30;;;-2.70;99.90;;;;;;8386952;28;20177;-83
2022/12/11 14:30:58;;;;;;;24.20;12.20;;;-2.70;99.90;;;;;;8385474;28;20225;-77
2022/12/11 14:35:04;;;;;;;22.40;12.83;;;-2.70;99.90;;;;;;8385779;28;20217;-82
2022/12/11 14:39:15;;;;;;;21.73;11.30;;;-2.70;99.90;;;;;;8399582;28;20328;-78
2022/12/11 14:43:50;;;;;;;24.93;12.40;;;-2.70;1.00;;;;;;8385377;28;20182;-84
2022/12/11 14:47:54;;;;;;;20.87;11.80;;;-2.70;1.00;;;;;;8356127;28;20201;-81
2022/12/11 14:51:58;;;;;;;20.70;12.23;;;-2.70;1.00;;;;;;8386034;28;20213;-76
2022/12/11 14:56:10;;;;;;;21.00;11.83;;;-2.70;1.00;;;;;;8381674;28;20226;-76
2022/12/11 15:00:37;;;;;;;19.90;11.43;;;-2.70;1.00;;;;;;8350471;28;20202;-75
2022/12/11 15:04:38;;;;;;;21.60;11.67;;;-2.70;1.00;;;;;;8356577;28;20586;-75
2022/12/11 15:08:39;;;;;;;20.63;11.70;;;-2.70;99.90;;;;;;8349421;28;20194;-76
2022/12/11 15:12:44;;;;;;;19.83;11.27;;;-2.70;99.90;;;;;;8350216;28;20528;-78
2022/12/11 15:16:49;;;;;;;22.93;11.87;;;-2.70;99.90;;;;;;8353063;28;20448;-83
2022/12/11 15:20:53;;;;;;;20.90;11.10;;;-2.70;99.90;;;;;;8331254;28;20233;-77
2022/12/11 15:24:56;;;;;;;23.30;12.63;;;-2.70;99.90;;;;;;8334127;28;20190;-78
2022/12/11 15:29:02;;;;;;;22.10;11.63;;;-2.70;99.90;;;;;;8350919;28;20189;-82
2022/12/11 15:33:09;;;;;;;20.93;11.50;;;-2.70;99.90;;;;;;8382499;28;20212;-81
2022/12/11 15:37:31;;;;;;;23.00;12.13;;;-2.70;99.90;;;;;;8377963;28;20182;-75
2022/12/11 15:41:33;;;;;;;21.37;11.77;;;-2.70;99.90;;;;;;8381974;28;20211;-77
2022/12/11 15:45:36;;;;;;;25.67;12.07;;;-2.70;38.10;;;;;;8382629;28;20186;-74
2022/12/11 15:49:37;;;;;;;21.00;11.80;;;-2.70;99.90;;;;;;8380206;28;20210;-84
2022/12/11 15:53:38;;;;;;;22.10;11.27;;;-2.70;99.90;;;;;;8396643;28;20248;-80
2022/12/11 15:57:45;;;;;;;19.20;10.70;;;-2.70;99.90;;;;;;8376307;28;20201;-76
2022/12/11 16:01:49;;;;;;;20.23;10.80;;;-2.70;99.90;;;;;;8376123;28;20185;-80
2022/12/11 16:05:51;;;;;;;22.07;12.03;;;-2.70;99.90;;;;;;8377504;28;20185;-80
2022/12/11 16:09:52;;;;;;;18.93;11.33;;;-2.70;99.90;;;;;;8383255;28;20204;-76
2022/12/11 16:13:53;;;;;;;20.20;11.27;;;-2.70;99.90;;;;;;8380503;28;20205;-82
2022/12/11 16:18:05;;;;;;;19.63;10.67;;;-2.70;99.90;;;;;;8382040;28;20184;-81
2022/12/11 16:22:07;;;;;;;21.10;11.03;;;-2.70;99.90;;;;;;8373906;28;20210;-82
2022/12/11 16:26:08;;;;;;;20.27;12.33;;;-2.70;99.90;;;;;;8395450;28;20273;-78
2022/12/11 16:30:10;;;;;;;20.63;11.43;;;-2.70;99.90;;;;;;8380750;28;20232;-76
2022/12/11 16:34:11;;;;;;;20.03;10.90;;;-2.70;99.90;;;;;;8379934;28;20222;-74
2022/12/11 16:38:12;;;;;;;19.67;11.30;;;-2.70;1.00;;;;;;8381001;28;20233;-78
2022/12/11 16:42:13;;;;;;;18.70;11.10;;;-2.70;1.00;;;;;;8372885;28;20173;-76
2022/12/11 16:46:19;;;;;;;19.70;10.40;;;-2.70;99.90;;;;;;8378515;28;20228;-82
2022/12/11 16:50:22;;;;;;;23.53;12.03;;;-2.70;99.90;;;;;;8377947;28;20571;-76
2022/12/11 16:54:23;;;;;;;19.40;11.27;;;-2.80;99.90;;;;;;8381369;28;20210;-80
2022/12/11 16:58:25;;;;;;;25.40;11.87;;;-2.80;99.90;;;;;;8381798;28;20209;-81
2022/12/11 17:02:26;;;;;;;19.63;11.43;;;-2.80;1.00;;;;;;8378443;28;20181;-78
2022/12/11 17:06:27;;;;;;;23.73;12.83;;;-2.80;99.90;;;;;;8379900;28;20200;-75
2022/12/11 17:10:29;;;;;;;20.83;10.77;;;-2.80;1.00;;;;;;8380467;28;20239;-80
2022/12/11 17:14:31;;;;;;;22.60;12.43;;;-2.80;99.90;;;;;;8380021;28;20205;-76
2022/12/11 17:18:34;;;;;;;21.70;12.23;;;-2.80;1.00;;;;;;8376162;28;20195;-81
2022/12/11 17:22:37;;;;;;;20.20;11.43;;;-2.80;99.90;;;;;;8380131;28;20199;-76
2022/12/11 17:26:38;;;;;;;20.50;12.07;;;-2.80;99.90;;;;;;8372633;28;20206;-78
2022/12/11 17:30:44;;;;;;;23.17;12.20;;;-2.80;10.10;;;;;;8374871;28;20244;-79
2022/12/11 17:34:47;;;;;;;24.97;12.80;;;-2.80;11.00;;;;;;8385141;28;20213;-81
2022/12/11 17:38:49;;;;;;;24.50;12.17;;;-2.80;1.00;;;;;;8384165;28;20181;-76
2022/12/11 17:42:50;;;;;;;22.60;13.07;;;-2.80;1.00;;;;;;8386315;28;20204;-77
2022/12/11 17:46:52;;;;;;;25.27;13.90;;;-2.80;1.00;;;;;;8392635;28;20176;-82
2022/12/11 17:50:53;;;;;;;21.57;11.63;;;-2.80;1.00;;;;;;8380141;28;20193;-81
2022/12/11 17:54:55;;;;;;;24.87;12.13;;;-2.80;1.00;;;;;;8381607;28;20236;-81
2022/12/11 17:58:57;;;;;;;21.80;11.90;;;-2.80;52.20;;;;;;8400887;28;20202;-76
2022/12/11 18:02:58;;;;;;;27.07;12.20;;;-2.80;99.90;;;;;;8379854;28;20238;-81
2022/12/11 18:06:59;;;;;;;22.77;11.53;;;-2.80;1.00;;;;;;8375421;28;20185;-76
2022/12/11 18:11:09;;;;;;;21.57;12.60;;;-2.80;99.90;;;;;;8385970;28;20181;-82
2022/12/11 18:15:12;;;;;;;21.57;12.00;;;-2.80;27.60;;;;;;8374422;28;20212;-80
2022/12/11 18:19:14;;;;;;;25.70;11.83;;;-2.80;99.90;;;;;;8383012;28;20234;-79
2022/12/11 18:23:15;;;;;;;20.27;10.37;;;-2.80;1.00;;;;;;8373954;28;20189;-76
2022/12/11 18:27:17;;;;;;;19.23;10.77;;;-2.80;99.90;;;;;;8376953;28;20198;-77
2022/12/11 18:31:21;;;;;;;21.17;11.97;;;-2.80;99.90;;;;;;8388936;28;20189;-80
2022/12/11 18:35:24;;;;;;;22.20;12.47;;;-2.80;99.90;;;;;;8377000;28;20227;-80
2022/12/11 18:39:25;;;;;;;22.77;12.90;;;-2.80;99.90;;;;;;8381132;28;20209;-79
2022/12/11 18:43:26;;;;;;;24.67;11.77;;;-2.80;1.00;;;;;;8383386;28;20190;-83
2022/12/11 18:47:27;;;;;;;21.80;11.40;;;-2.80;99.90;;;;;;8373970;28;20220;-79
2022/12/11 18:51:29;;;;;;;25.47;12.70;;;-2.80;1.00;;;;;;8376891;28;20506;-76
2022/12/11 18:55:31;;;;;;;21.33;11.00;;;-2.80;1.00;;;;;;8378070;28;20213;-81
2022/12/11 18:59:32;;;;;;;23.57;12.37;;;-2.80;99.90;;;;;;8381817;28;20214;-82
2022/12/11 19:03:34;;;;;;;25.47;12.13;;;-2.80;99.90;;;;;;8373856;28;20193;-77
2022/12/11 19:07:35;;;;;;;20.07;11.13;;;-2.80;99.90;;;;;;8375366;28;20190;-80
2022/12/11 19:11:39;;;;;;;25.97;13.27;;;-2.80;56.50;;;;;;8382542;28;20196;-75
2022/12/11 19:15:42;;;;;;;22.60;12.10;;;-2.80;1.00;;;;;;8381772;28;20249;-78
2022/12/11 19:19:45;;;;;;;22.27;12.80;;;-2.80;1.00;;;;;;8383182;28;20860;-78
2022/12/11 19:23:46;;;;;;;19.90;12.20;;;-2.80;1.00;;;;;;8384136;28;20177;-81
2022/12/11 19:27:49;;;;;;;17.60;10.80;;;-2.80;99.90;;;;;;8380125;28;20181;-81
2022/12/11 19:31:51;;;;;;;23.30;12.90;;;-2.80;99.90;;;;;;8375903;28;20183;-74
2022/12/11 19:36:06;;;;;;;24.53;13.53;;;-2.80;99.90;;;;;;8389018;28;20220;-77
2022/12/11 19:40:08;;;;;;;22.67;12.13;;;-2.80;99.90;;;;;;8371411;28;20255;-75
2022/12/11 19:44:12;;;;;;;20.43;11.87;;;-2.80;84.70;;;;;;8388876;28;20185;-81
2022/12/11 19:48:13;;;;;;;18.70;11.57;;;-2.80;1.00;;;;;;8389340;28;20193;-77
2022/12/11 19:52:14;;;;;;;24.57;11.87;;;-2.80;99.90;;;;;;8387185;28;20185;-77
2022/12/11 19:56:17;;;;;;;20.53;11.30;;;-2.80;99.90;;;;;;8378019;28;20205;-77
2022/12/11 20:00:19;;;;;;;24.23;12.67;;;-2.80;99.90;;;;;;8380224;28;20182;-82
2022/12/11 20:04:20;;;;;;;23.83;12.40;;;-2.80;99.90;;;;;;8375371;28;20202;-76
2022/12/11 20:08:21;;;;;;;23.70;13.23;;;-2.80;1.00;;;;;;8377125;28;20588;-79
2022/12/11 20:12:24;;;;;;;24.90;14.17;;;-2.80;91.70;;;;;;8377716;28;20178;-76
2022/12/11 20:16:25;;;;;;;25.30;13.13;;;-2.90;99.90;;;;;;8380525;28;20201;-81
2022/12/11 20:20:28;;;;;;;23.17;12.77;;;-2.90;1.00;;;;;;8386230;28;20174;-84
2022/12/11 20:24:29;;;;;;;25.73;13.53;;;-2.90;1.00;;;;;;8395559;28;20390;-76
2022/12/11 20:28:31;;;;;;;24.63;13.53;;;-2.90;99.90;;;;;;8380026;28;20192;-76
2022/12/11 20:32:33;;;;;;;24.43;12.53;;;-2.90;99.90;;;;;;8387101;28;20194;-75
2022/12/11 20:36:35;;;;;;;26.03;13.47;;;-2.80;99.90;;;;;;8376577;28;20216;-80
2022/12/11 20:40:37;;;;;;;25.20;13.90;;;-2.80;99.90;;;;;;8385774;28;20203;-80
2022/12/11 20:44:39;;;;;;;25.87;14.83;;;-2.80;99.90;;;;;;8376777;28;20212;-80
2022/12/11 20:48:53;;;;;;;29.33;15.30;;;-2.80;1.00;;;;;;8359449;28;20216;-82
2022/12/11 20:52:54;;;;;;;28.17;14.50;;;-2.80;1.00;;;;;;8378076;28;20215;-77
2022/12/11 20:56:55;;;;;;;23.83;13.10;;;-2.80;1.00;;;;;;8369793;28;20215;-76
2022/12/11 21:00:57;;;;;;;29.60;13.83;;;-2.80;1.00;;;;;;8377528;28;20174;-77
2022/12/11 21:04:58;;;;;;;24.27;12.80;;;-2.80;1.00;;;;;;8381274;28;20197;-81
2022/12/11 21:09:01;;;;;;;28.07;13.53;;;-2.80;1.00;;;;;;8380244;28;20292;-83
2022/12/11 21:13:02;;;;;;;25.30;14.40;;;-2.80;1.00;;;;;;8362241;28;20436;-77
2022/12/11 21:17:04;;;;;;;28.60;15.30;;;-2.80;1.00;;;;;;8360734;28;20181;-76
2022/12/11 21:21:05;;;;;;;29.90;14.20;;;-2.80;1.00;;;;;;8371107;28;20185;-83
2022/12/11 21:25:08;;;;;;;34.23;15.37;;;-2.80;1.00;;;;;;8388233;28;20209;-78
2022/12/11 21:29:12;;;;;;;28.00;15.20;;;-2.80;1.00;;;;;;8362492;28;20206;-80
2022/12/11 21:33:14;;;;;;;25.50;14.43;;;-2.80;1.00;;;;;;8372634;28;20551;-83
2022/12/11 21:37:15;;;;;;;25.87;13.93;;;-2.80;1.00;;;;;;8365205;28;20175;-75
2022/12/11 21:41:19;;;;;;;30.87;15.80;;;-2.80;1.00;;;;;;8379555;28;20174;-75
2022/12/11 21:45:21;;;;;;;29.13;15.67;;;-2.80;16.00;;;;;;8381590;28;20216;-77
2022/12/11 21:49:23;;;;;;;28.63;14.43;;;-2.80;47.10;;;;;;8376770;28;20193;-80
2022/12/11 21:53:24;;;;;;;29.83;16.27;;;-2.80;84.90;;;;;;8376909;28;20294;-77
2022/12/11 21:57:25;;;;;;;29.40;15.40;;;-2.80;99.90;;;;;;8381978;28;20215;-75
2022/12/11 22:01:33;;;;;;;29.53;15.27;;;-2.70;99.90;;;;;;8380038;28;20198;-77
2022/12/11 22:05:36;;;;;;;29.33;15.53;;;-2.70;99.90;;;;;;8371472;28;20193;-76
2022/12/11 22:09:37;;;;;;;29.90;15.00;;;-2.70;99.90;;;;;;8378463;28;20188;-76
2022/12/11 22:13:38;;;;;;;30.03;15.30;;;-2.70;99.90;;;;;;8390863;28;20231;-76
2022/12/11 22:17:38;;;;;;;26.80;14.50;;;-2.70;99.90;;;;;;8366412;28;20181;-76
2022/12/11 22:21:40;;;;;;;28.30;15.27;;;-2.70;99.90;;;;;;8370840;28;20355;-78
2022/12/11 22:25:40;;;;;;;29.93;14.93;;;-2.70;99.90;;;;;;8369094;28;20186;-81
2022/12/11 22:29:41;;;;;;;27.47;14.57;;;-2.70;99.90;;;;;;8371355;28;20193;-76
2022/12/11 22:33:43;;;;;;;31.13;15.23;;;-2.70;99.90;;;;;;8369963;28;20232;-80
2022/12/11 22:37:44;;;;;;;28.57;14.73;;;-2.70;99.90;;;;;;8380485;28;20196;-75
2022/12/11 22:41:45;;;;;;;32.40;16.07;;;-2.70;99.90;;;;;;8372415;28;20186;-77
2022/12/11 22:45:46;;;;;;;32.93;16.87;;;-2.70;99.90;;;;;;8376860;28;20205;-77
2022/12/11 22:49:47;;;;;;;30.63;16.53;;;-2.70;99.90;;;;;;8381550;28;20220;-79
2022/12/11 22:53:48;;;;;;;31.40;16.27;;;-2.60;99.90;;;;;;8374884;28;20201;-77
2022/12/11 22:57:48;;;;;;;30.13;16.43;;;-2.60;99.90;;;;;;8374053;28;20235;-82
2022/12/11 23:01:49;;;;;;;28.33;16.17;;;-2.60;99.90;;;;;;8376663;28;20189;-82
2022/12/11 23:05:50;;;;;;;29.10;15.67;;;-2.60;99.90;;;;;;8375849;28;20181;-76
2022/12/11 23:09:51;;;;;;;33.13;16.20;;;-2.60;99.90;;;;;;8375878;28;20190;-80